createdAt,value
2019-04-26T00:04:18.495Z,3.89
2019-04-26T00:09:26.670Z,2.19
2019-04-26T00:14:34.874Z,3.64
2019-04-26T00:19:42.981Z,2.61
2019-04-26T00:24:51.453Z,2.14
2019-04-26T00:29:59.624Z,3.28
2019-04-26T00:35:07.945Z,4.57
2019-04-26T00:40:16.574Z,5.55
2019-04-26T00:45:24.693Z,2.26
2019-04-26T00:50:32.986Z,3.98
2019-04-26T00:55:41.433Z,2.73
2019-04-26T01:00:49.575Z,2.55
2019-04-26T01:06:00.276Z,2.22
2019-04-26T01:11:03.786Z,2.59
2019-04-26T01:16:12.155Z,1.91
2019-04-26T01:21:20.611Z,2.30
2019-04-26T01:26:28.510Z,1.92
2019-04-26T01:31:36.689Z,2.87
2019-04-26T01:36:44.883Z,2.55
2019-04-26T01:41:53.193Z,2.82
2019-04-26T01:47:01.333Z,3.98
2019-04-26T01:52:09.817Z,2.67
2019-04-26T01:57:18.125Z,3.02
2019-04-26T02:02:27.681Z,3.88
2019-04-26T02:07:34.215Z,4.43
2019-04-26T02:12:42.430Z,4.09
2019-04-26T02:17:50.702Z,2.77
2019-04-26T02:22:58.830Z,2.42
2019-04-26T02:28:07.041Z,2.96
2019-04-26T02:33:15.305Z,2.92
2019-04-26T02:38:23.432Z,2.46
2019-04-26T02:43:32.168Z,2.62
2019-04-26T02:48:39.294Z,2.35
2019-04-26T02:53:47.477Z,2.14
2019-04-26T02:58:56.114Z,2.08
2019-04-26T03:04:04.271Z,2.20
2019-04-26T03:09:12.642Z,3.26
2019-04-26T03:14:20.879Z,3.18
2019-04-26T03:19:31.448Z,2.60
2019-04-26T03:24:38.359Z,1.79
2019-04-26T03:29:44.520Z,7.58
2019-04-26T03:34:55.058Z,3.57
2019-04-26T03:40:00.191Z,3.49
2019-04-26T03:45:08.402Z,2.96
2019-04-26T03:50:16.774Z,4.13
2019-04-26T03:55:24.843Z,3.26
2019-04-26T04:00:33.119Z,4.61
2019-04-26T04:05:42.058Z,4.30
2019-04-26T04:10:48.955Z,4.75
2019-04-26T04:15:57.149Z,3.72
2019-04-26T04:21:05.377Z,3.61
2019-04-26T04:26:13.947Z,5.71
2019-04-26T04:31:22.180Z,4.26
2019-04-26T04:36:30.414Z,4.45
2019-04-26T04:41:38.596Z,4.06
2019-04-26T04:46:48.670Z,4.36
2019-04-26T04:51:54.345Z,5.44
2019-04-26T04:57:02.559Z,5.80
2019-04-26T05:02:10.730Z,4.34
2019-04-26T05:07:19.384Z,6.01
2019-04-26T05:12:28.442Z,4.70
2019-04-26T05:17:38.454Z,7.07
2019-04-26T05:22:37.398Z,5.36
2019-04-26T05:27:46.787Z,6.83
2019-04-26T05:32:53.274Z,6.76
2019-04-26T05:38:01.480Z,9.34
2019-04-26T05:43:11.656Z,8.51
2019-04-26T05:48:13.768Z,8.07
2019-04-26T05:53:16.412Z,7.93
2019-04-26T05:58:17.110Z,8.65
2019-04-26T06:03:15.258Z,7.75
2019-04-26T06:08:31.117Z,8.60
2019-04-26T06:13:31.756Z,8.81
2019-04-26T06:18:42.078Z,9.90
2019-04-26T06:23:38.757Z,9.90
2019-04-26T06:28:47.114Z,11.72
2019-04-26T06:33:55.326Z,10.09
2019-04-26T06:39:04.205Z,10.47
2019-04-26T06:44:11.261Z,10.67
2019-04-26T06:49:19.442Z,11.45
2019-04-26T06:54:27.713Z,16.59
2019-04-26T06:59:36.811Z,9.35
2019-04-26T07:04:43.953Z,8.62
2019-04-26T07:09:52.122Z,5.23
2019-04-26T07:15:01.086Z,3.61
2019-04-26T07:20:07.993Z,4.01
2019-04-26T07:25:17.807Z,3.33
2019-04-26T07:35:32.279Z,5.18
2019-04-26T10:04:35.445Z,3.07
2019-04-26T10:09:44.503Z,5.36
2019-04-26T10:14:53.021Z,5.57
2019-04-26T10:20:01.286Z,6.15
2019-04-26T10:25:16.318Z,5.33
2019-04-26T10:30:17.230Z,4.48
2019-04-26T10:35:25.500Z,4.20
2019-04-26T10:40:35.613Z,7.32
2019-04-26T10:45:41.534Z,4.58
2019-04-26T10:50:49.757Z,7.44
2019-04-26T10:55:58.161Z,6.83
2019-04-26T11:01:06.323Z,11.73
2019-04-26T11:06:14.586Z,7.84
2019-04-26T11:11:22.960Z,10.94
2019-04-26T11:16:31.315Z,8.75
2019-04-26T11:21:39.597Z,11.39
2019-04-26T11:26:48.521Z,9.99
2019-04-26T11:31:58.433Z,12.92
2019-04-26T11:37:04.542Z,9.63
2019-04-26T11:42:13.225Z,13.24
2019-04-26T11:47:21.431Z,10.98
2019-04-26T11:52:41.301Z,7.95
2019-04-26T11:57:40.089Z,9.97
2019-04-26T12:02:50.810Z,9.99
2019-04-26T12:07:55.276Z,8.10
2019-04-26T12:13:05.895Z,7.85
2019-04-26T12:18:12.572Z,11.22
2019-04-26T12:23:23.320Z,11.40
2019-04-26T12:28:22.153Z,8.05
2019-04-26T12:33:30.902Z,12.20
2019-04-26T12:38:39.721Z,9.46
2019-04-26T12:43:48.214Z,10.70
2019-04-26T12:48:56.843Z,9.46
2019-04-26T12:54:08.243Z,15.55
2019-04-26T12:59:15.690Z,8.27
2019-04-26T13:04:21.655Z,41.31
2019-04-26T13:09:29.894Z,9.40
2019-04-26T13:14:38.651Z,15.90
2019-04-26T13:19:49.573Z,21.09
2019-04-26T13:24:53.908Z,14.31
2019-04-26T13:30:02.680Z,13.84
2019-04-26T13:35:12.917Z,13.81
2019-04-26T13:40:17.898Z,12.03
2019-04-26T13:45:26.269Z,11.99
2019-04-26T13:50:34.562Z,9.56
2019-04-26T13:55:42.897Z,9.74
2019-04-26T14:00:51.042Z,10.33
2019-04-26T14:05:59.443Z,10.12
2019-04-26T14:11:07.894Z,10.43
2019-04-26T14:16:17.101Z,11.40
2019-04-26T14:21:24.555Z,11.85
2019-04-26T14:26:40.008Z,11.79
2019-04-26T14:31:33.596Z,10.01
2019-04-26T14:36:43.777Z,10.83
2019-04-26T14:41:52.772Z,9.47
2019-04-26T14:46:58.443Z,9.09
2019-04-26T14:52:06.616Z,7.86
2019-04-26T14:57:21.441Z,8.68
2019-04-26T15:02:24.571Z,8.17
2019-04-26T15:07:22.923Z,7.48
2019-04-26T15:12:32.467Z,6.60
2019-04-26T15:17:42.242Z,7.57
2019-04-26T15:22:50.086Z,10.57
2019-04-26T15:27:56.449Z,6.78
2019-04-26T15:33:13.869Z,4.67
2019-04-26T15:38:11.705Z,5.57
2019-04-26T15:43:23.803Z,4.18
2019-04-26T15:48:28.829Z,5.61
2019-04-26T15:53:37.612Z,3.16
2019-04-26T15:58:48.973Z,3.11
2019-04-26T16:03:54.165Z,2.83
2019-04-26T16:09:03.232Z,3.76
2019-04-26T16:14:12.400Z,2.05
2019-04-26T16:19:19.209Z,3.57
2019-04-26T16:24:28.924Z,2.83
2019-04-26T16:29:36.129Z,2.77
2019-04-26T16:34:47.533Z,2.75
2019-04-26T16:39:52.318Z,3.70
2019-04-26T16:45:04.237Z,3.71
2019-04-26T16:50:08.504Z,3.86
2019-04-26T16:55:20.856Z,2.50
2019-04-26T17:00:47.326Z,2.20
2019-04-26T17:05:47.892Z,2.12
2019-04-26T17:10:42.046Z,1.96
2019-04-26T17:15:53.461Z,4.21
2019-04-26T17:20:56.420Z,4.00
2019-04-26T17:26:04.760Z,4.96
2019-04-26T17:31:13.105Z,7.30
2019-04-26T17:36:21.657Z,4.79
2019-04-26T17:41:31.071Z,6.34
2019-04-26T17:46:37.923Z,7.03
2019-04-26T17:51:46.603Z,9.04
2019-04-26T17:56:55.037Z,9.14
2019-04-26T18:02:03.416Z,10.20
2019-04-26T18:07:34.623Z,8.76
2019-04-26T18:12:20.638Z,11.45
2019-04-26T18:17:27.752Z,13.12
2019-04-26T18:22:36.417Z,14.29
2019-04-26T18:27:44.573Z,14.30
2019-04-26T18:32:53.089Z,15.03
2019-04-26T18:38:01.419Z,15.25
2019-04-26T18:43:12.603Z,13.75
2019-04-26T18:48:17.897Z,14.00
2019-04-26T18:53:26.339Z,12.28
2019-04-26T18:58:37.916Z,11.85
2019-04-26T19:03:43.704Z,12.17
2019-04-26T19:08:52.700Z,12.57
2019-04-26T19:13:58.438Z,14.60
2019-04-26T19:19:06.876Z,15.89
2019-04-26T19:24:19.532Z,17.99
2019-04-26T19:29:32.677Z,19.00
2019-04-26T19:34:31.562Z,22.90
2019-04-26T19:39:39.687Z,21.64
2019-04-26T19:45:03.446Z,21.30
2019-04-26T19:49:57.265Z,21.00
2019-04-26T19:55:23.827Z,22.45
2019-04-26T20:00:12.678Z,25.51
2019-04-26T20:05:26.120Z,22.95
2019-04-26T20:10:17.994Z,22.78
2019-04-26T20:20:45.737Z,22.26
2019-04-26T20:25:46.114Z,22.20
2019-04-26T20:30:51.421Z,22.20
2019-04-26T20:35:47.762Z,22.84
2019-04-26T20:40:56.111Z,21.38
2019-04-26T20:46:14.008Z,22.62
2019-04-26T20:51:12.070Z,20.98
2019-04-26T20:56:20.192Z,21.65
2019-04-26T21:01:29.278Z,22.14
2019-04-26T21:06:37.442Z,21.51
2019-04-26T21:11:47.250Z,22.81
2019-04-26T21:16:55.392Z,23.43
2019-04-26T21:22:03.542Z,24.62
2019-04-26T21:27:11.794Z,25.18
2019-04-26T21:32:21.934Z,25.86
2019-04-26T21:37:27.593Z,26.70
2019-04-26T21:42:35.885Z,28.10
2019-04-26T21:47:44.286Z,27.41
2019-04-26T21:52:54.017Z,27.09
2019-04-26T21:58:05.098Z,28.04
2019-04-26T22:03:00.846Z,26.39
2019-04-26T22:08:08.922Z,26.22
2019-04-26T22:13:17.350Z,28.41
2019-04-26T22:18:25.668Z,27.69
2019-04-26T22:23:33.807Z,26.85
2019-04-26T22:28:43.351Z,28.25
2019-04-26T22:33:49.678Z,31.17
2019-04-26T22:39:01.621Z,35.02
2019-04-26T22:44:05.597Z,34.13
2019-04-26T22:49:13.801Z,34.98
2019-04-26T22:54:23.063Z,41.39
2019-04-26T22:59:29.842Z,35.44
2019-04-26T23:04:37.987Z,32.44
2019-04-26T23:14:55.175Z,34.92
2019-04-26T23:20:03.062Z,32.94
2019-04-26T23:25:09.422Z,34.62
2019-04-26T23:30:17.681Z,33.83
2019-04-26T23:35:26.053Z,33.27
2019-04-26T23:40:34.172Z,32.81
2019-04-26T23:50:50.157Z,30.10
2019-04-26T23:55:58.257Z,31.12
